Time;durP1;ratioP1;P1;durP2;ratioP2;P2;SDS_P1;SDS_P2;PMS_P1;PMS_P2;Temp;Humidity;BMP_temperature;BMP_pressure;BME280_temperature;BME280_humidity;BME280_pressure;Samples;Min_cycle;Max_cycle;Signal;HPM_P1;HPM_P2
2022/04/18 00:00:17;;;;;;;12.15;6.30;;;;;;;;;;5032949;28;20095;-73
2022/04/18 00:02:43;;;;;;;16.27;7.70;;;;;;;;;;5032987;28;20032;-73
2022/04/18 00:05:09;;;;;;;13.52;6.90;;;;;;;;;;5032912;28;20037;-73
2022/04/18 00:07:35;;;;;;;14.90;6.90;;;;;;;;;;5032856;28;20026;-73
2022/04/18 00:10:01;;;;;;;12.05;6.53;;;;;;;;;;5032980;28;20040;-74
2022/04/18 00:12:28;;;;;;;15.40;7.40;;;;;;;;;;5032705;28;20030;-74
2022/04/18 00:14:54;;;;;;;13.43;7.30;;;;;;;;;;5032729;28;20014;-74
2022/04/18 00:17:20;;;;;;;15.43;7.60;;;;;;;;;;5032651;28;20109;-73
2022/04/18 00:19:46;;;;;;;15.15;7.80;;;;;;;;;;5036809;28;20028;-73
2022/04/18 00:22:12;;;;;;;15.23;8.30;;;;;;;;;;5052393;28;20113;-74
2022/04/18 00:24:38;;;;;;;15.20;8.00;;;;;;;;;;5052501;28;20493;-74
2022/04/18 00:27:05;;;;;;;14.00;7.97;;;;;;;;;;5052165;28;20427;-74
2022/04/18 00:29:31;;;;;;;15.93;7.97;;;;;;;;;;5051175;28;20123;-74
2022/04/18 00:31:57;;;;;;;17.15;8.10;;;;;;;;;;5052650;28;20025;-73
2022/04/18 00:34:23;;;;;;;17.92;8.25;;;;;;;;;;5052636;28;20490;-73
2022/04/18 00:36:49;;;;;;;14.90;7.57;;;;;;;;;;5052489;28;20029;-73
2022/04/18 00:39:15;;;;;;;14.88;7.90;;;;;;;;;;5052182;28;20032;-73
2022/04/18 00:41:41;;;;;;;16.15;7.93;;;;;;;;;;5052386;28;20375;-74
2022/04/18 00:44:07;;;;;;;17.90;8.73;;;;;;;;;;5052697;28;20025;-74
2022/04/18 00:46:33;;;;;;;17.63;8.32;;;;;;;;;;5052412;28;20079;-73
2022/04/18 00:48:59;;;;;;;16.35;7.93;;;;;;;;;;5052254;28;20025;-74
2022/04/18 00:51:26;;;;;;;16.35;8.57;;;;;;;;;;5052329;28;20438;-73
2022/04/18 00:53:53;;;;;;;17.00;8.38;;;;;;;;;;5052194;28;20025;-74
2022/04/18 00:56:20;;;;;;;18.38;8.00;;;;;;;;;;5052232;28;20036;-74
2022/04/18 00:58:47;;;;;;;15.40;8.23;;;;;;;;;;5051811;28;20028;-74
2022/04/18 01:01:13;;;;;;;16.20;7.90;;;;;;;;;;5050454;28;20041;-74
2022/04/18 01:03:39;;;;;;;12.45;7.18;;;;;;;;;;5052192;28;20064;-73
2022/04/18 01:06:05;;;;;;;15.20;7.63;;;;;;;;;;5052025;28;20025;-73
2022/04/18 01:08:34;;;;;;;14.52;7.28;;;;;;;;;;5052097;28;20033;-74
2022/04/18 01:11:01;;;;;;;17.40;6.75;;;;;;;;;;5051924;28;20028;-73
2022/04/18 01:13:30;;;;;;;15.93;6.68;;;;;;;;;;5052036;28;20032;-74
2022/04/18 01:15:57;;;;;;;15.68;7.13;;;;;;;;;;5051961;28;20021;-73
2022/04/18 01:18:23;;;;;;;12.55;6.40;;;;;;;;;;5051853;28;20037;-74
2022/04/18 01:20:49;;;;;;;11.45;6.35;;;;;;;;;;5051729;28;20037;-74
2022/04/18 01:23:17;;;;;;;13.85;7.03;;;;;;;;;;5051842;28;20348;-75
2022/04/18 01:31:12;;;;;;;12.68;6.45;;;;;;;;;;5051885;28;20113;-74
2022/04/18 01:33:38;;;;;;;13.98;6.40;;;;;;;;;;5050467;28;20017;-73
2022/04/18 01:36:04;;;;;;;12.15;6.47;;;;;;;;;;5051744;28;20109;-74
2022/04/18 01:38:30;;;;;;;13.75;7.03;;;;;;;;;;5051842;28;20033;-73
2022/04/18 01:40:56;;;;;;;11.80;6.68;;;;;;;;;;5051512;28;20028;-73
2022/04/18 01:43:22;;;;;;;11.57;6.25;;;;;;;;;;5051746;28;20033;-73
2022/04/18 01:45:48;;;;;;;11.43;6.07;;;;;;;;;;5050309;28;20367;-73
2022/04/18 01:48:14;;;;;;;12.85;6.80;;;;;;;;;;5051863;28;20029;-74
2022/04/18 01:50:41;;;;;;;13.85;6.65;;;;;;;;;;5051499;28;20032;-73
2022/04/18 01:53:07;;;;;;;13.05;6.45;;;;;;;;;;5051663;28;20029;-74
2022/04/18 01:55:33;;;;;;;14.48;6.68;;;;;;;;;;5052111;28;20032;-74
2022/04/18 01:57:59;;;;;;;14.18;6.70;;;;;;;;;;5051624;28;20033;-74
2022/04/18 02:00:25;;;;;;;14.50;6.18;;;;;;;;;;5051500;28;20052;-74
2022/04/18 02:02:52;;;;;;;16.45;6.93;;;;;;;;;;5051812;28;20095;-74
2022/04/18 02:05:18;;;;;;;11.07;6.28;;;;;;;;;;5051516;28;20059;-74
2022/04/18 02:07:44;;;;;;;12.63;6.07;;;;;;;;;;5051404;28;20452;-73
2022/04/18 02:10:10;;;;;;;11.65;6.30;;;;;;;;;;5052219;28;20660;-74
2022/04/18 02:12:36;;;;;;;11.30;5.93;;;;;;;;;;5055501;28;20029;-74
2022/04/18 02:15:03;;;;;;;12.15;6.07;;;;;;;;;;5040218;28;20507;-74
2022/04/18 02:17:29;;;;;;;18.88;6.80;;;;;;;;;;5035288;28;20352;-74
2022/04/18 02:19:55;;;;;;;10.30;5.40;;;;;;;;;;5040329;28;20020;-74
2022/04/18 02:22:24;;;;;;;11.10;5.97;;;;;;;;;;5055067;28;20103;-74
2022/04/18 02:24:50;;;;;;;14.20;6.28;;;;;;;;;;5054953;28;20037;-74
2022/04/18 02:27:16;;;;;;;10.85;5.95;;;;;;;;;;5054815;28;20029;-74
2022/04/18 02:29:43;;;;;;;15.75;6.60;;;;;;;;;;5055135;28;20390;-74
2022/04/18 02:34:54;;;;;;;12.90;5.85;;;;;;;;;;5054678;28;20040;-74
2022/04/18 02:37:20;;;;;;;10.90;5.80;;;;;;;;;;5054842;28;20024;-74
2022/04/18 02:39:46;;;;;;;10.15;5.95;;;;;;;;;;5054762;28;20147;-73
2022/04/18 02:42:12;;;;;;;10.07;5.80;;;;;;;;;;5044329;28;20337;-74
2022/04/18 02:44:41;;;;;;;13.68;5.97;;;;;;;;;;5034838;28;20439;-74
2022/04/18 02:47:08;;;;;;;11.00;6.30;;;;;;;;;;5034780;28;20059;-74
2022/04/18 02:49:34;;;;;;;11.07;5.78;;;;;;;;;;5034548;28;20037;-74
2022/04/18 02:52:00;;;;;;;11.70;5.82;;;;;;;;;;5034585;28;20104;-73
2022/04/18 02:54:26;;;;;;;14.25;5.90;;;;;;;;;;5034605;28;20492;-74
2022/04/18 02:56:52;;;;;;;11.35;5.70;;;;;;;;;;5034475;28;20140;-74
2022/04/18 02:59:18;;;;;;;11.32;6.03;;;;;;;;;;5034321;28;20029;-74
2022/04/18 03:01:44;;;;;;;13.35;5.45;;;;;;;;;;5034385;28;20120;-74
2022/04/18 03:04:10;;;;;;;12.35;6.15;;;;;;;;;;5033060;28;20132;-74
2022/04/18 03:06:36;;;;;;;11.32;5.88;;;;;;;;;;5034221;28;20464;-74
2022/04/18 03:09:02;;;;;;;11.73;6.03;;;;;;;;;;5034311;28;20033;-74
2022/04/18 03:11:28;;;;;;;12.23;6.10;;;;;;;;;;5034230;28;20021;-74
2022/04/18 03:13:55;;;;;;;10.77;5.72;;;;;;;;;;5034142;28;20018;-74
2022/04/18 03:16:21;;;;;;;12.20;6.03;;;;;;;;;;5034118;28;20020;-74
2022/04/18 03:18:47;;;;;;;12.25;5.80;;;;;;;;;;5034265;28;20033;-74
2022/04/18 03:21:14;;;;;;;12.18;5.78;;;;;;;;;;5050070;28;20024;-74
2022/04/18 03:23:42;;;;;;;11.80;5.78;;;;;;;;;;5053374;28;20078;-73
2022/04/18 03:26:08;;;;;;;13.63;6.05;;;;;;;;;;5053548;28;20021;-74
2022/04/18 03:28:34;;;;;;;11.07;5.97;;;;;;;;;;5053834;28;20035;-74
2022/04/18 03:31:00;;;;;;;10.15;6.25;;;;;;;;;;5053718;28;20025;-74
2022/04/18 03:33:26;;;;;;;11.38;5.93;;;;;;;;;;5053721;28;20017;-74
2022/04/18 03:41:21;;;;;;;12.43;6.57;;;;;;;;;;5050450;28;20044;-74
2022/04/18 03:43:47;;;;;;;13.57;6.53;;;;;;;;;;5033593;28;20037;-74
2022/04/18 03:46:13;;;;;;;14.55;6.47;;;;;;;;;;5033563;28;20388;-74
2022/04/18 03:48:39;;;;;;;10.10;6.22;;;;;;;;;;5033448;28;20025;-74
2022/04/18 03:51:05;;;;;;;13.15;6.65;;;;;;;;;;5033377;28;20028;-74
2022/04/18 03:53:31;;;;;;;9.07;5.63;;;;;;;;;;5032206;28;20021;-74
2022/04/18 03:55:57;;;;;;;10.30;5.63;;;;;;;;;;5033631;28;20437;-74
2022/04/18 03:58:24;;;;;;;9.07;5.38;;;;;;;;;;5033302;28;20036;-74
2022/04/18 04:00:50;;;;;;;12.60;5.72;;;;;;;;;;5033110;28;20045;-74
2022/04/18 04:03:16;;;;;;;10.43;5.75;;;;;;;;;;5033205;28;20079;-74
2022/04/18 04:05:42;;;;;;;11.18;6.13;;;;;;;;;;5033160;28;20033;-74
2022/04/18 04:08:08;;;;;;;9.57;5.93;;;;;;;;;;5033187;28;20029;-74
2022/04/18 04:10:34;;;;;;;11.55;5.80;;;;;;;;;;5033133;28;20028;-74
2022/04/18 04:13:00;;;;;;;9.95;5.10;;;;;;;;;;5033130;28;20423;-74
2022/04/18 04:15:26;;;;;;;11.02;5.63;;;;;;;;;;5033123;28;20021;-74
2022/04/18 04:17:52;;;;;;;11.07;5.43;;;;;;;;;;5033032;28;20026;-74
2022/04/18 04:20:19;;;;;;;9.30;5.03;;;;;;;;;;5041343;28;20033;-74
2022/04/18 04:22:48;;;;;;;12.10;5.32;;;;;;;;;;5052830;28;20031;-74
2022/04/18 04:25:14;;;;;;;9.40;5.13;;;;;;;;;;5052701;28;20067;-74
2022/04/18 04:27:40;;;;;;;9.82;5.65;;;;;;;;;;5052377;28;20032;-74
2022/04/18 04:30:07;;;;;;;9.38;5.13;;;;;;;;;;5052743;28;20025;-74
2022/04/18 04:32:33;;;;;;;10.23;5.25;;;;;;;;;;5052547;28;20033;-74
2022/04/18 04:34:59;;;;;;;12.93;5.28;;;;;;;;;;5051667;28;20103;-74
2022/04/18 04:37:25;;;;;;;7.60;4.78;;;;;;;;;;5052359;28;20029;-74
2022/04/18 04:39:51;;;;;;;9.70;5.03;;;;;;;;;;5052532;28;20044;-74
2022/04/18 04:42:18;;;;;;;8.60;5.15;;;;;;;;;;5041650;28;20025;-74
2022/04/18 04:44:44;;;;;;;12.15;5.22;;;;;;;;;;5031131;28;20021;-74
2022/04/18 04:47:11;;;;;;;11.18;5.43;;;;;;;;;;5032389;28;20033;-74
2022/04/18 04:49:37;;;;;;;9.88;4.88;;;;;;;;;;5032347;28;20021;-74
2022/04/18 04:52:04;;;;;;;10.95;4.80;;;;;;;;;;5032457;28;20057;-74
2022/04/18 04:54:30;;;;;;;7.32;4.93;;;;;;;;;;5032599;28;20044;-74
2022/04/18 04:56:56;;;;;;;10.27;5.22;;;;;;;;;;5032177;28;20068;-74
2022/04/18 04:59:22;;;;;;;9.73;4.72;;;;;;;;;;5031947;28;20079;-74
2022/04/18 05:01:48;;;;;;;9.75;4.70;;;;;;;;;;5032397;28;20033;-74
2022/04/18 05:04:14;;;;;;;7.93;4.63;;;;;;;;;;5032236;28;20045;-74
2022/04/18 05:06:40;;;;;;;9.05;4.88;;;;;;;;;;5032156;28;20033;-74
2022/04/18 05:09:06;;;;;;;12.18;4.88;;;;;;;;;;5032290;28;20029;-74
2022/04/18 05:11:33;;;;;;;9.45;4.55;;;;;;;;;;5032067;28;20017;-74
2022/04/18 05:13:59;;;;;;;9.70;4.93;;;;;;;;;;5031977;28;20356;-74
2022/04/18 05:16:25;;;;;;;12.95;5.82;;;;;;;;;;5031891;28;20036;-74
2022/04/18 05:18:51;;;;;;;9.23;4.72;;;;;;;;;;5032184;28;20033;-74
2022/04/18 05:21:17;;;;;;;8.25;4.53;;;;;;;;;;5048493;28;20036;-74
2022/04/18 05:23:43;;;;;;;9.63;4.82;;;;;;;;;;5051886;28;20383;-74
2022/04/18 05:26:09;;;;;;;9.70;5.00;;;;;;;;;;5052075;28;20051;-74
2022/04/18 05:28:35;;;;;;;9.25;4.40;;;;;;;;;;5050365;28;20127;-74
2022/04/18 05:31:01;;;;;;;8.90;4.25;;;;;;;;;;5051979;28;20013;-74
2022/04/18 05:33:28;;;;;;;10.18;4.30;;;;;;;;;;5052089;28;20031;-74
2022/04/18 05:35:54;;;;;;;9.23;4.55;;;;;;;;;;5051639;28;20029;-74
2022/04/18 05:38:20;;;;;;;12.38;4.57;;;;;;;;;;5051761;28;20100;-74
2022/04/18 05:40:46;;;;;;;13.05;4.15;;;;;;;;;;5051624;28;20033;-74
2022/04/18 05:43:12;;;;;;;10.43;4.43;;;;;;;;;;5033397;28;20022;-74
2022/04/18 05:45:39;;;;;;;10.07;4.38;;;;;;;;;;5033262;28;20026;-74
2022/04/18 05:48:05;;;;;;;8.88;4.53;;;;;;;;;;5035777;28;20448;-74
2022/04/18 05:50:31;;;;;;;7.82;4.30;;;;;;;;;;5035621;28;20022;-74
2022/04/18 05:52:57;;;;;;;10.32;4.18;;;;;;;;;;5035636;28;20096;-74
2022/04/18 05:55:23;;;;;;;8.15;4.00;;;;;;;;;;5036031;28;20504;-74
2022/04/18 05:57:52;;;;;;;8.57;4.35;;;;;;;;;;5035604;28;20030;-74
2022/04/18 06:00:18;;;;;;;10.93;4.10;;;;;;;;;;5035241;28;20396;-74
2022/04/18 06:02:45;;;;;;;9.07;3.85;;;;;;;;;;5035507;28;20056;-74
2022/04/18 06:05:11;;;;;;;9.18;4.13;;;;;;;;;;5035495;28;20029;-74
2022/04/18 06:07:39;;;;;;;7.53;4.05;;;;;;;;;;5035282;28;20037;-75
2022/04/18 06:10:05;;;;;;;10.02;3.47;;;;;;;;;;5035475;28;20452;-74
2022/04/18 06:12:31;;;;;;;8.48;4.00;;;;;;;;;;5035218;28;20030;-74
2022/04/18 06:14:57;;;;;;;6.47;3.20;;;;;;;;;;5049074;28;20025;-75
2022/04/18 06:17:23;;;;;;;8.30;3.55;;;;;;;;;;5055251;28;20020;-74
2022/04/18 06:19:49;;;;;;;11.20;3.50;;;;;;;;;;5055080;28;20056;-75
2022/04/18 06:22:16;;;;;;;5.45;3.22;;;;;;;;;;5055241;28;20033;-75
2022/04/18 06:24:42;;;;;;;10.80;2.97;;;;;;;;;;5055028;28;20028;-75
2022/04/18 06:27:08;;;;;;;5.18;3.38;;;;;;;;;;5054724;28;20033;-75
2022/04/18 06:29:37;;;;;;;7.35;3.55;;;;;;;;;;5055066;28;20029;-75
2022/04/18 06:32:03;;;;;;;7.05;3.22;;;;;;;;;;5054900;28;20057;-75
2022/04/18 06:34:30;;;;;;;6.55;3.20;;;;;;;;;;5055000;28;20110;-74
2022/04/18 06:36:56;;;;;;;5.50;2.90;;;;;;;;;;5054935;28;20128;-75
2022/04/18 06:39:22;;;;;;;5.75;3.85;;;;;;;;;;5054578;28;20029;-75
2022/04/18 06:41:48;;;;;;;8.93;3.53;;;;;;;;;;5047714;28;20045;-75
2022/04/18 06:44:14;;;;;;;7.10;3.38;;;;;;;;;;5034888;28;20036;-75
2022/04/18 06:46:40;;;;;;;5.82;3.10;;;;;;;;;;5034554;28;20106;-75
2022/04/18 06:49:07;;;;;;;6.97;3.17;;;;;;;;;;5034676;28;20030;-75
2022/04/18 06:51:33;;;;;;;5.28;2.67;;;;;;;;;;5034518;28;20495;-75
2022/04/18 06:53:59;;;;;;;6.28;2.80;;;;;;;;;;5034582;28;20413;-75
2022/04/18 06:59:09;;;;;;;5.45;2.30;;;;;;;;;;5034853;28;20044;-75
2022/04/18 07:01:35;;;;;;;6.05;2.83;;;;;;;;;;5034186;28;20049;-74
2022/04/18 07:04:02;;;;;;;5.97;2.70;;;;;;;;;;5034381;28;20440;-75
2022/04/18 07:06:28;;;;;;;4.68;2.50;;;;;;;;;;5034367;28;20061;-75
2022/04/18 07:08:54;;;;;;;5.35;2.50;;;;;;;;;;5034397;28;20395;-74
2022/04/18 07:11:20;;;;;;;4.80;2.40;;;;;;;;;;5034315;28;20364;-75
2022/04/18 07:13:46;;;;;;;7.55;2.47;;;;;;;;;;5038378;28;20472;-75
2022/04/18 07:16:12;;;;;;;5.95;2.15;;;;;;;;;;5054051;28;20025;-74
2022/04/18 07:18:38;;;;;;;4.53;2.20;;;;;;;;;;5054031;28;20033;-74
2022/04/18 07:21:04;;;;;;;6.13;2.90;;;;;;;;;;5053725;28;20025;-74
2022/04/18 07:23:30;;;;;;;4.95;2.50;;;;;;;;;;5052396;28;20196;-75
2022/04/18 07:25:56;;;;;;;6.40;2.60;;;;;;;;;;5053562;28;20083;-74
2022/04/18 07:28:22;;;;;;;5.63;2.55;;;;;;;;;;5053672;28;20116;-74
2022/04/18 07:30:48;;;;;;;5.15;2.60;;;;;;;;;;5053637;28;20055;-74
2022/04/18 07:33:15;;;;;;;5.05;2.65;;;;;;;;;;5053800;28;20021;-74
2022/04/18 07:35:42;;;;;;;5.10;2.47;;;;;;;;;;5052108;28;20100;-74
2022/04/18 07:40:53;;;;;;;4.32;2.58;;;;;;;;;;5053499;28;20055;-74
2022/04/18 07:43:21;;;;;;;4.22;2.38;;;;;;;;;;5034337;28;20025;-74
2022/04/18 07:45:47;;;;;;;3.80;1.98;;;;;;;;;;5033494;28;20018;-74
2022/04/18 07:48:13;;;;;;;8.98;2.60;;;;;;;;;;5032240;28;20390;-74
2022/04/18 07:53:24;;;;;;;7.55;2.50;;;;;;;;;;5033410;28;20055;-74
2022/04/18 07:55:50;;;;;;;5.13;2.70;;;;;;;;;;5033632;28;20115;-74
2022/04/18 07:58:16;;;;;;;6.03;2.40;;;;;;;;;;5033431;28;20104;-74
2022/04/18 08:00:42;;;;;;;4.40;2.20;;;;;;;;;;5033224;28;20054;-74
2022/04/18 08:03:08;;;;;;;5.32;2.25;;;;;;;;;;5033197;28;20079;-74
2022/04/18 08:05:34;;;;;;;4.32;2.42;;;;;;;;;;5033145;28;20121;-74
2022/04/18 08:08:01;;;;;;;6.80;2.55;;;;;;;;;;5032939;28;20030;-74
2022/04/18 08:10:27;;;;;;;3.42;2.15;;;;;;;;;;5033180;28;20025;-74
2022/04/18 08:12:53;;;;;;;7.85;2.78;;;;;;;;;;5033027;28;20448;-74
2022/04/18 08:15:19;;;;;;;5.68;2.42;;;;;;;;;;5049887;28;20025;-74
2022/04/18 08:17:45;;;;;;;4.50;2.25;;;;;;;;;;5052795;28;20468;-73
2022/04/18 08:20:11;;;;;;;5.63;2.30;;;;;;;;;;5052871;28;20070;-74
2022/04/18 08:22:38;;;;;;;7.43;2.42;;;;;;;;;;5052922;28;20082;-74
2022/04/18 08:25:04;;;;;;;3.30;2.08;;;;;;;;;;5052668;28;20463;-74
2022/04/18 08:27:30;;;;;;;5.05;2.30;;;;;;;;;;5053436;28;20036;-74
2022/04/18 08:29:56;;;;;;;4.13;2.33;;;;;;;;;;5053059;28;20032;-74
2022/04/18 08:32:22;;;;;;;4.05;2.22;;;;;;;;;;5053480;28;20025;-73
2022/04/18 08:34:48;;;;;;;4.72;2.17;;;;;;;;;;5052252;28;20501;-74
2022/04/18 08:37:15;;;;;;;3.58;2.20;;;;;;;;;;5052243;28;20109;-74
2022/04/18 08:39:41;;;;;;;3.75;2.10;;;;;;;;;;5052234;28;20064;-74
2022/04/18 08:42:07;;;;;;;4.07;1.95;;;;;;;;;;5041526;28;20037;-74
2022/04/18 08:44:36;;;;;;;3.53;2.10;;;;;;;;;;5033246;28;20021;-74
2022/04/18 08:47:03;;;;;;;5.47;2.17;;;;;;;;;;5032990;28;20061;-74
2022/04/18 08:54:59;;;;;;;4.47;2.13;;;;;;;;;;5032581;28;20487;-74
2022/04/18 08:57:25;;;;;;;4.63;2.13;;;;;;;;;;5032168;28;20034;-75
2022/04/18 08:59:51;;;;;;;2.88;1.50;;;;;;;;;;5032091;28;20446;-73
2022/04/18 09:02:17;;;;;;;5.20;2.40;;;;;;;;;;5032294;28;20036;-74
2022/04/18 09:04:44;;;;;;;4.22;2.13;;;;;;;;;;5030828;28;20029;-74
2022/04/18 09:07:13;;;;;;;3.65;2.20;;;;;;;;;;5031910;28;20041;-74
2022/04/18 09:09:40;;;;;;;3.15;2.00;;;;;;;;;;5032081;28;20033;-74
2022/04/18 09:12:18;;;;;;;3.97;2.10;;;;;;;;;;5031966;28;20021;-73
2022/04/18 09:14:48;;;;;;;3.20;1.80;;;;;;;;;;5044378;28;20021;-74
2022/04/18 09:17:29;;;;;;;2.75;1.92;;;;;;;;;;5052106;28;20103;-74
2022/04/18 09:20:04;;;;;;;2.85;1.70;;;;;;;;;;5051581;28;20029;-74
2022/04/18 09:22:32;;;;;;;2.72;1.60;;;;;;;;;;5051793;28;20074;-74
2022/04/18 09:24:58;;;;;;;3.20;1.60;;;;;;;;;;5051853;28;20484;-74
2022/04/18 09:27:24;;;;;;;4.65;1.67;;;;;;;;;;5051792;28;20021;-74
2022/04/18 09:30:06;;;;;;;4.55;1.80;;;;;;;;;;5050621;28;20051;-74
2022/04/18 09:32:32;;;;;;;3.85;1.80;;;;;;;;;;5052094;28;20036;-74
2022/04/18 09:35:03;;;;;;;3.20;1.65;;;;;;;;;;5051823;28;20028;-74
2022/04/18 09:37:30;;;;;;;3.22;1.63;;;;;;;;;;5051753;28;20025;-74
2022/04/18 09:39:56;;;;;;;4.95;1.70;;;;;;;;;;5051697;28;20478;-74
2022/04/18 09:42:23;;;;;;;4.15;1.90;;;;;;;;;;5051466;28;20471;-74
2022/04/18 09:44:50;;;;;;;3.10;1.70;;;;;;;;;;5051425;28;20037;-74
2022/04/18 09:47:16;;;;;;;5.05;2.33;;;;;;;;;;5051084;28;20103;-74
2022/04/18 09:49:43;;;;;;;3.28;1.77;;;;;;;;;;5051235;28;20082;-74
2022/04/18 09:52:15;;;;;;;6.50;1.90;;;;;;;;;;5051199;28;20071;-75
2022/04/18 09:54:43;;;;;;;3.33;2.17;;;;;;;;;;5051304;28;20048;-74
2022/04/18 09:57:10;;;;;;;2.65;1.92;;;;;;;;;;5049811;28;20037;-74
2022/04/18 09:59:37;;;;;;;3.13;1.77;;;;;;;;;;5051199;28;20075;-74
2022/04/18 10:02:04;;;;;;;3.60;2.15;;;;;;;;;;5050987;28;20552;-75
2022/04/18 10:04:30;;;;;;;4.85;2.30;;;;;;;;;;5049762;28;20398;-75
2022/04/18 10:06:57;;;;;;;4.38;2.42;;;;;;;;;;5051049;28;20021;-75
2022/04/18 10:09:26;;;;;;;3.47;1.67;;;;;;;;;;5050943;28;20017;-74
2022/04/18 10:11:52;;;;;;;3.22;1.95;;;;;;;;;;5051114;28;20052;-75
2022/04/18 10:14:19;;;;;;;4.53;1.90;;;;;;;;;;5050766;28;20025;-75
2022/04/18 10:16:45;;;;;;;2.78;2.00;;;;;;;;;;5050854;28;20021;-75
2022/04/18 10:19:30;;;;;;;3.33;2.33;;;;;;;;;;5051070;28;20108;-74
2022/04/18 10:22:07;;;;;;;5.55;1.88;;;;;;;;;;5031120;28;20022;-74
2022/04/18 10:24:43;;;;;;;3.15;1.60;;;;;;;;;;5031010;28;20029;-74
2022/04/18 10:27:28;;;;;;;3.25;1.70;;;;;;;;;;5031044;28;20033;-74
2022/04/18 10:29:55;;;;;;;3.42;1.83;;;;;;;;;;5031093;28;20092;-74
2022/04/18 10:32:26;;;;;;;6.50;1.60;;;;;;;;;;5049751;28;20045;-74
2022/04/18 10:34:52;;;;;;;4.32;1.65;;;;;;;;;;5054499;28;20073;-74
2022/04/18 10:37:22;;;;;;;10.00;1.80;;;;;;;;;;5054416;28;20045;-74
2022/04/18 10:39:56;;;;;;;2.53;1.40;;;;;;;;;;5054405;28;20129;-74
2022/04/18 10:42:23;;;;;;;8.70;1.50;;;;;;;;;;5054378;28;20048;-74
2022/04/18 10:44:58;;;;;;;3.00;1.45;;;;;;;;;;5054567;28;20033;-74
2022/04/18 10:47:25;;;;;;;2.22;1.50;;;;;;;;;;5054048;28;20025;-74
2022/04/18 10:50:10;;;;;;;3.25;1.70;;;;;;;;;;5054069;28;20467;-75
2022/04/18 10:52:36;;;;;;;3.05;1.80;;;;;;;;;;5054372;28;20056;-74
2022/04/18 10:55:02;;;;;;;2.53;1.60;;;;;;;;;;5054661;28;20049;-74
2022/04/18 10:57:28;;;;;;;3.63;1.80;;;;;;;;;;5054403;28;20106;-74
2022/04/18 10:59:54;;;;;;;4.40;2.13;;;;;;;;;;5054153;28;20448;-74
2022/04/18 11:02:37;;;;;;;7.28;2.00;;;;;;;;;;5054585;28;20043;-74
2022/04/18 11:05:03;;;;;;;2.03;1.60;;;;;;;;;;5054202;28;20681;-74
2022/04/18 11:07:44;;;;;;;3.42;1.80;;;;;;;;;;5053998;28;20037;-74
2022/04/18 11:10:20;;;;;;;3.45;2.00;;;;;;;;;;5054204;28;20204;-74
2022/04/18 11:12:46;;;;;;;3.85;1.63;;;;;;;;;;5054120;28;20482;-74
2022/04/18 11:15:12;;;;;;;6.10;1.60;;;;;;;;;;5054076;28;20471;-74
2022/04/18 11:17:40;;;;;;;3.80;1.88;;;;;;;;;;5054115;28;20491;-75
2022/04/18 11:20:25;;;;;;;3.55;2.25;;;;;;;;;;5052311;28;20447;-74
2022/04/18 11:23:10;;;;;;;4.47;2.17;;;;;;;;;;5053620;28;20107;-74
2022/04/18 11:26:02;;;;;;;7.10;1.88;;;;;;;;;;5053609;28;20037;-74
2022/04/18 11:28:35;;;;;;;4.07;1.60;;;;;;;;;;5052299;28;20045;-74
2022/04/18 11:31:01;;;;;;;3.83;1.50;;;;;;;;;;5053394;28;20024;-74
2022/04/18 11:33:27;;;;;;;4.43;1.55;;;;;;;;;;5053661;28;20379;-74
2022/04/18 11:36:00;;;;;;;2.60;1.40;;;;;;;;;;5053521;28;20047;-74
2022/04/18 11:38:26;;;;;;;2.03;1.45;;;;;;;;;;5053611;28;20034;-74
2022/04/18 11:40:52;;;;;;;3.33;1.50;;;;;;;;;;5053287;28;20025;-74
2022/04/18 11:43:18;;;;;;;3.05;2.00;;;;;;;;;;5052876;28;20029;-74
2022/04/18 11:45:44;;;;;;;4.15;1.70;;;;;;;;;;5053199;28;20025;-74
2022/04/18 11:48:14;;;;;;;2.50;1.60;;;;;;;;;;5053090;28;20017;-74
2022/04/18 11:50:43;;;;;;;6.35;1.98;;;;;;;;;;5051910;28;20360;-74
2022/04/18 11:53:12;;;;;;;2.47;1.70;;;;;;;;;;5053293;28;20028;-74
2022/04/18 11:55:51;;;;;;;2.40;1.80;;;;;;;;;;5053485;28;20114;-74
2022/04/18 11:58:21;;;;;;;4.20;2.10;;;;;;;;;;5053057;28;20033;-74
2022/04/18 12:09:07;;;;;;;3.80;2.10;;;;;;;;;;5052965;28;20044;-74
2022/04/18 12:11:34;;;;;;;6.55;2.30;;;;;;;;;;5052914;28;20033;-74
2022/04/18 12:14:00;;;;;;;4.40;2.50;;;;;;;;;;5051233;28;20078;-74
2022/04/18 12:16:26;;;;;;;4.20;2.08;;;;;;;;;;5052860;28;20021;-74
2022/04/18 12:18:57;;;;;;;4.65;2.50;;;;;;;;;;5052632;28;20108;-74
2022/04/18 12:21:24;;;;;;;3.38;2.42;;;;;;;;;;5051267;28;20078;-74
2022/04/18 12:23:57;;;;;;;3.58;2.30;;;;;;;;;;5052528;28;20029;-74
2022/04/18 12:26:27;;;;;;;5.70;2.53;;;;;;;;;;5052484;28;20094;-74
2022/04/18 12:29:00;;;;;;;4.00;2.80;;;;;;;;;;5052447;28;20029;-74
2022/04/18 12:31:26;;;;;;;3.65;2.50;;;;;;;;;;5042125;28;20024;-74
2022/04/18 12:33:52;;;;;;;3.40;2.55;;;;;;;;;;5032357;28;20079;-74
2022/04/18 12:36:24;;;;;;;6.30;3.00;;;;;;;;;;5032259;28;20460;-74
2022/04/18 12:38:51;;;;;;;7.55;3.17;;;;;;;;;;5032546;28;20033;-74
2022/04/18 12:41:26;;;;;;;4.68;2.72;;;;;;;;;;5032214;28;20035;-74
2022/04/18 12:43:52;;;;;;;3.92;2.60;;;;;;;;;;5032443;28;20037;-74
2022/04/18 12:46:24;;;;;;;5.43;3.00;;;;;;;;;;5032338;28;20075;-74
2022/04/18 12:48:53;;;;;;;;;;;;;;;;;;5032798;28;20025;-74
2022/04/18 12:51:30;;;;;;;3.83;2.75;;;;;;;;;;5032098;28;19909;-74
2022/04/18 12:53:56;;;;;;;7.43;3.05;;;;;;;;;;5031925;28;20028;-74
2022/04/18 12:56:26;;;;;;;3.47;2.33;;;;;;;;;;5031353;28;20029;-74
2022/04/18 12:58:54;;;;;;;4.53;3.20;;;;;;;;;;5032079;28;20025;-74
2022/04/18 13:01:28;;;;;;;3.47;2.42;;;;;;;;;;5032049;28;20048;-74
2022/04/18 13:03:55;;;;;;;6.13;2.55;;;;;;;;;;5032076;28;20104;-74
2022/04/18 13:06:28;;;;;;;2.92;2.40;;;;;;;;;;5031983;28;20111;-74
2022/04/18 13:08:58;;;;;;;3.83;2.25;;;;;;;;;;5031783;28;20033;-74
2022/04/18 13:11:36;;;;;;;4.63;2.42;;;;;;;;;;5031670;28;20072;-74
2022/04/18 13:14:03;;;;;;;4.72;2.78;;;;;;;;;;5031759;28;20121;-74
2022/04/18 13:16:29;;;;;;;7.85;2.38;;;;;;;;;;5031818;28;20028;-74
2022/04/18 13:18:58;;;;;;;4.35;1.88;;;;;;;;;;5031640;28;20590;-74
2022/04/18 13:21:25;;;;;;;4.43;3.28;;;;;;;;;;5049186;28;20025;-74
2022/04/18 13:23:51;;;;;;;3.42;2.50;;;;;;;;;;5051518;28;20021;-74
2022/04/18 13:26:17;;;;;;;6.38;2.80;;;;;;;;;;5051596;28;20455;-74
2022/04/18 13:28:43;;;;;;;5.03;3.03;;;;;;;;;;5051737;28;20120;-73
2022/04/18 13:31:09;;;;;;;3.60;2.30;;;;;;;;;;5051525;28;20075;-74
2022/04/18 13:33:35;;;;;;;6.32;2.58;;;;;;;;;;5051654;28;20028;-74
2022/04/18 13:38:46;;;;;;;4.30;2.15;;;;;;;;;;5051731;28;20120;-74
2022/04/18 13:41:12;;;;;;;4.72;2.10;;;;;;;;;;5049564;28;20454;-74
2022/04/18 13:43:38;;;;;;;8.75;3.00;;;;;;;;;;5030433;28;20029;-74
2022/04/18 13:46:04;;;;;;;2.33;1.98;;;;;;;;;;5031715;28;20083;-74
2022/04/18 13:48:30;;;;;;;2.58;1.70;;;;;;;;;;5031449;28;20063;-74
2022/04/18 13:50:56;;;;;;;8.73;2.28;;;;;;;;;;5031451;28;20029;-74
2022/04/18 13:53:22;;;;;;;2.70;2.33;;;;;;;;;;5031663;28;20021;-73
2022/04/18 13:55:48;;;;;;;3.63;2.35;;;;;;;;;;5031815;28;20112;-74
2022/04/18 13:58:16;;;;;;;4.07;2.72;;;;;;;;;;5031514;28;20730;-74
2022/04/18 14:00:43;;;;;;;2.38;1.88;;;;;;;;;;5031315;28;20546;-74
2022/04/18 14:03:09;;;;;;;3.92;2.45;;;;;;;;;;5031531;28;20033;-74
2022/04/18 14:05:37;;;;;;;3.78;2.45;;;;;;;;;;5031292;28;20112;-76
2022/04/18 14:08:03;;;;;;;3.50;2.47;;;;;;;;;;5034697;28;20037;-76
2022/04/18 14:10:29;;;;;;;4.82;2.70;;;;;;;;;;5033740;28;20262;-76
2022/04/18 14:12:55;;;;;;;3.97;2.80;;;;;;;;;;5034904;28;20456;-76
2022/04/18 14:20:51;;;;;;;3.28;2.67;;;;;;;;;;5054610;28;20036;-72
2022/04/18 14:23:17;;;;;;;3.70;2.60;;;;;;;;;;5054618;28;20107;-74
2022/04/18 14:25:43;;;;;;;6.00;2.90;;;;;;;;;;5054518;28;20059;-74
2022/04/18 14:28:09;;;;;;;3.88;2.70;;;;;;;;;;5054819;28;20025;-72
2022/04/18 14:30:35;;;;;;;3.90;2.67;;;;;;;;;;5054554;28;20021;-73
2022/04/18 14:33:03;;;;;;;2.80;2.35;;;;;;;;;;5054637;28;20032;-74
2022/04/18 14:35:29;;;;;;;3.75;2.70;;;;;;;;;;5054615;28;20025;-74
2022/04/18 14:37:55;;;;;;;2.53;2.05;;;;;;;;;;5054526;28;20485;-74
2022/04/18 14:40:21;;;;;;;4.20;2.35;;;;;;;;;;5054504;28;20048;-74
2022/04/18 14:42:47;;;;;;;3.35;2.35;;;;;;;;;;5054250;28;20021;-74
2022/04/18 14:45:13;;;;;;;7.28;2.50;;;;;;;;;;5054353;28;20044;-74
2022/04/18 14:47:39;;;;;;;4.05;2.25;;;;;;;;;;5054278;28;20025;-74
2022/04/18 14:50:06;;;;;;;3.58;2.50;;;;;;;;;;5054404;28;20022;-74
2022/04/18 14:52:32;;;;;;;3.30;2.47;;;;;;;;;;5054090;28;20074;-74
2022/04/18 14:54:58;;;;;;;2.92;2.30;;;;;;;;;;5054373;28;20036;-74
2022/04/18 14:57:24;;;;;;;6.47;2.20;;;;;;;;;;5054095;28;20086;-74
2022/04/18 14:59:51;;;;;;;4.78;2.13;;;;;;;;;;5053918;28;20029;-74
2022/04/18 15:02:18;;;;;;;3.03;2.08;;;;;;;;;;5054137;28;20470;-74
2022/04/18 15:04:44;;;;;;;2.85;2.22;;;;;;;;;;5052528;28;20044;-74
2022/04/18 15:07:10;;;;;;;4.20;1.73;;;;;;;;;;5053724;28;20083;-74
2022/04/18 15:09:37;;;;;;;3.50;2.10;;;;;;;;;;5053763;28;20033;-74
2022/04/18 15:12:03;;;;;;;5.97;2.15;;;;;;;;;;5052344;28;20040;-74
2022/04/18 15:14:29;;;;;;;3.10;2.15;;;;;;;;;;5053600;28;20025;-74
2022/04/18 15:16:55;;;;;;;1.75;1.55;;;;;;;;;;5053753;28;20052;-74
2022/04/18 15:19:21;;;;;;;1.95;1.75;;;;;;;;;;5051269;28;20132;-74
2022/04/18 15:21:48;;;;;;;3.28;1.80;;;;;;;;;;5053544;28;20154;-74